This is the latest recevied weather packets stored in our database for station/object KR4ELZ. If no packets are shown the sender has not sent any weather packets the latest 10 day(s).
| Time | Temp. | Humidity | Pressure | Rain* | Wind** | Luminosity | Snow |
|---|---|---|---|---|---|---|---|
| 1777905085 | 20.56° C | 62% | 1014.8 hPa | 0 mm | - | 297 W/m² | - |
| 1777904782 | 20.56° C | 64% | 1014.9 hPa | 0 mm | - | 424 W/m² | - |
| 1777904480 | 20.56° C | 62% | 1014.8 hPa | 0 mm | - | 389 W/m² | - |
| 1777904176 | 20° C | 65% | 1014.8 hPa | 0 mm | - | 383 W/m² | - |
| 1777903873 | 20° C | 65% | 1014.6 hPa | 0 mm | - | 340 W/m² | - |
| 1777903570 | 19.44° C | 64% | 1014.9 hPa | 0 mm | - | 366 W/m² | - |
| 1777903265 | 20° C | 64% | 1014.9 hPa | 0 mm | - | 345 W/m² | - |
| 1777902962 | 18.89° C | 68% | 1015 hPa | 0 mm | - | 332 W/m² | - |
| 1777902659 | 18.89° C | 66% | 1015 hPa | 0 mm | - | 305 W/m² | - |
| 1777902356 | 18.33° C | 68% | 1014.8 hPa | 0 mm | - | 259 W/m² | - |
| 1777902053 | 17.78° C | 70% | 1014.8 hPa | 0 mm | - | 240 W/m² | - |
| 1777901752 | 18.33° C | 70% | 1014.8 hPa | 0 mm | - | 240 W/m² | - |
| 1777901448 | 17.78° C | 69% | 1014.8 hPa | 0 mm | - | 296 W/m² | - |
| 1777901146 | 17.78° C | 69% | 1014.9 hPa | 0 mm | - | 216 W/m² | - |
| 1777900844 | 17.22° C | 71% | 1014.8 hPa | 0 mm | - | 252 W/m² | - |
| 1777900540 | 16.11° C | 73% | 1014.9 hPa | 0 mm | - | 186 W/m² | - |
| 1777900238 | 16.11° C | 73% | 1015 hPa | 0 mm | - | 128 W/m² | - |
| 1777899934 | 16.11° C | 74% | 1014.8 hPa | 0 mm | - | 174 W/m² | - |
| 1777899631 | 15.56° C | 75% | 1014.9 hPa | 0 mm | - | 196 W/m² | - |
| 1777899328 | 15.56° C | 74% | 1014.9 hPa | 0 mm | - | 56 W/m² | - |
| 1777899026 | 15° C | 74% | 1014.8 hPa | 0 mm | - | 84 W/m² | - |
| 1777898722 | 15° C | 76% | 1014.7 hPa | 0 mm | - | 52 W/m² | - |
| 1777898420 | 14.44° C | 77% | 1014.7 hPa | 0 mm | - | 53 W/m² | - |
| 1777898118 | 13.89° C | 80% | 1014.7 hPa | 0 mm | - | 45 W/m² | - |
| 1777897815 | 13.33° C | 82% | 1014.5 hPa | 0 mm | - | 40 W/m² | - |
* Rain latest hour (hover to see other rain measurements)
** Current wind speed in m/s (hover to see current wind gust speed)